Time;durP1;ratioP1;P1;durP2;ratioP2;P2;SDS_P1;SDS_P2;PMS_P1;PMS_P2;Temp;Humidity;BMP_temperature;BMP_pressure;BME280_temperature;BME280_humidity;BME280_pressure;Samples;Min_cycle;Max_cycle;Signal;HPM_P1;HPM_P2
2022/04/25 02:58:25;;;;;;;9.85;3.70;;;;;;;10.41;57.56;100913.56;5260703;23;121714;-95
2022/04/25 03:00:53;;;;;;;6.97;3.50;;;;;;;10.12;57.64;100880.03;4859437;29;118278;-95
2022/04/25 03:03:24;;;;;;;8.07;4.05;;;;;;;9.87;57.51;100841.72;4839993;29;121594;-95
2022/04/25 03:05:56;;;;;;;10.02;4.25;;;;;;;9.90;58.25;100849.81;4836317;29;118425;-95
2022/04/25 03:08:27;;;;;;;10.82;3.78;;;;;;;9.99;57.98;100871.09;4821239;29;122082;-94
2022/04/25 03:10:55;;;;;;;5.75;3.70;;;;;;;10.35;58.14;100920.81;4835670;29;122160;-95
2022/04/25 03:13:24;;;;;;;8.55;4.35;;;;;;;9.88;58.02;100856.94;4805145;29;118485;-95
2022/04/25 03:15:54;;;;;;;7.97;3.80;;;;;;;9.93;58.59;100864.63;4836561;29;119711;-95
2022/04/25 03:18:43;;;;;;;7.55;3.58;;;;;;;10.33;58.53;100922.47;4835780;29;122042;-95
2022/04/25 03:21:15;;;;;;;9.48;4.00;;;;;;;9.90;58.35;100874.47;4824428;29;118497;-96
2022/04/25 03:23:42;;;;;;;6.63;3.80;;;;;;;10.33;58.43;100933.44;4820269;29;123296;-95
2022/04/25 03:26:10;;;;;;;8.25;3.55;;;;;;;9.85;57.74;100855.88;4820886;29;118482;-95
2022/04/25 03:28:39;;;;;;;5.95;3.90;;;;;;;9.81;57.42;100864.19;4822752;29;121939;-95
2022/04/25 03:31:09;;;;;;;9.50;4.22;;;;;;;9.83;57.19;100867.25;4821005;29;120485;-95
2022/04/25 03:33:40;;;;;;;8.00;4.40;;;;;;;9.79;57.61;100874.06;4821447;29;118606;-94
2022/04/25 03:36:24;;;;;;;8.52;3.83;;;;;;;10.11;57.76;100928.59;4836776;29;119681;-95
2022/04/25 03:38:56;;;;;;;7.13;4.13;;;;;;;9.72;57.60;100880.53;4835449;29;122163;-95
2022/04/25 03:41:23;;;;;;;8.18;4.35;;;;;;;9.60;57.59;100861.38;4835640;29;118944;-95
2022/04/25 03:43:53;;;;;;;5.35;3.95;;;;;;;9.70;57.79;100890.38;4823486;29;122699;-95
2022/04/25 03:46:44;;;;;;;9.02;4.63;;;;;;;9.97;58.53;100939.28;4836591;29;118513;-94
2022/04/25 03:49:13;;;;;;;9.93;4.20;;;;;;;9.49;58.83;100872.66;4837255;29;119571;-94
2022/04/25 03:51:45;;;;;;;8.60;4.20;;;;;;;9.46;59.07;100868.84;4821015;29;121850;-94
2022/04/25 03:57:10;;;;;;;7.10;4.20;;;;;;;9.55;59.05;100890.06;4808795;29;118468;-94
2022/04/25 03:57:10;;;;;;;10.05;4.22;;;;;;;9.74;58.24;100924.69;4837898;29;118475;-95
2022/04/25 03:59:41;;;;;;;7.80;4.45;;;;;;;9.75;58.38;100930.94;4822900;29;121965;-95
2022/04/25 04:02:09;;;;;;;7.45;4.10;;;;;;;9.47;58.93;100896.97;4807879;29;119063;-94
2022/04/25 04:04:38;;;;;;;8.90;4.38;;;;;;;9.46;59.44;100890.72;4822487;29;118165;-95
2022/04/25 04:07:09;;;;;;;8.70;4.68;;;;;;;9.49;59.08;100886.34;4842084;29;121680;-95
2022/04/25 04:09:45;;;;;;;9.90;6.22;;;;;;;9.53;59.46;100900.69;4838439;29;118460;-95
2022/04/25 04:12:22;;;;;;;7.15;4.15;;;;;;;9.92;59.10;100953.50;4822770;29;121916;-95
2022/04/25 04:14:50;;;;;;;8.73;4.25;;;;;;;9.56;58.75;100894.34;4807464;29;118521;-95
2022/04/25 04:17:19;;;;;;;9.45;4.40;;;;;;;9.85;59.19;100943.53;4808341;29;120793;-95
2022/04/25 04:19:48;;;;;;;9.18;4.10;;;;;;;9.56;58.64;100901.78;4822982;29;121804;-95
2022/04/25 04:22:20;;;;;;;9.00;4.47;;;;;;;9.64;58.87;100906.59;4838495;29;118429;-95
2022/04/25 04:24:49;;;;;;;11.18;4.50;;;;;;;10.08;59.06;100967.09;4823966;29;122200;-95
2022/04/25 04:27:16;;;;;;;13.35;6.22;;;;;;;9.77;59.03;100918.34;4807842;29;122077;-94
2022/04/25 04:33:56;;;;;;;9.95;4.65;;;;;;;9.83;58.71;100921.28;4836912;29;122305;-94
2022/04/25 04:42:00;;;;;;;7.25;4.20;;;;;;;10.34;58.38;100974.13;5695459;23;121347;-94
2022/04/25 04:44:26;;;;;;;13.57;4.20;;;;;;;9.81;57.97;100897.06;4789518;29;118597;-94
2022/04/25 04:46:52;;;;;;;9.20;4.07;;;;;;;9.97;58.13;100911.88;4803943;29;122341;-94
2022/04/25 04:49:24;;;;;;;7.93;4.28;;;;;;;9.95;57.94;100900.59;4819666;29;122113;-93
2022/04/25 04:51:51;;;;;;;8.82;4.43;;;;;;;10.18;58.26;100940.56;4819914;29;118571;-93
2022/04/25 04:54:17;;;;;;;9.40;4.30;;;;;;;10.02;58.32;100909.34;4821181;29;121125;-94
2022/04/25 04:56:46;;;;;;;8.65;4.40;;;;;;;10.07;58.24;100917.00;4819271;29;118571;-95
2022/04/25 04:59:13;;;;;;;8.00;3.80;;;;;;;10.12;57.73;100901.97;4803654;29;121350;-94
2022/04/25 05:01:43;;;;;;;7.38;4.13;;;;;;;10.16;57.68;100919.81;4803885;29;121910;-94
2022/04/25 05:04:12;;;;;;;8.35;4.38;;;;;;;10.23;57.63;100918.88;4818693;29;118886;-94
2022/04/25 05:06:40;;;;;;;9.35;3.88;;;;;;;10.25;57.41;100921.16;4788463;29;121309;-94
2022/04/25 05:09:06;;;;;;;6.78;4.00;;;;;;;10.33;57.38;100928.72;4802672;29;122873;-93
2022/04/25 05:11:36;;;;;;;7.38;3.80;;;;;;;10.82;57.00;100991.34;4834293;29;118535;-94
2022/04/25 05:14:09;;;;;;;7.90;3.80;;;;;;;10.39;57.41;100926.94;4821908;29;120806;-94
2022/04/25 05:16:36;;;;;;;568.50;39.40;;;;;;;10.50;56.56;100942.28;4819637;29;118507;-93
2022/04/25 05:19:02;;;;;;;8.15;3.92;;;;;;;10.44;56.20;100926.41;4802782;29;119849;-93
2022/04/25 05:21:29;;;;;;;8.93;3.92;;;;;;;10.72;56.84;100965.03;4789474;29;121986;-93
2022/04/25 05:23:55;;;;;;;10.48;3.85;;;;;;;10.45;56.42;100927.16;4836670;29;118533;-93
2022/04/25 05:26:21;;;;;;;8.10;4.15;;;;;;;10.59;56.24;100936.88;4835762;29;120294;-94
2022/04/25 05:28:50;;;;;;;11.40;4.15;;;;;;;10.63;56.39;100943.00;4819114;29;122244;-93
2022/04/25 05:31:18;;;;;;;7.80;4.05;;;;;;;11.16;55.97;101009.00;4790313;29;118593;-93
2022/04/25 05:33:45;;;;;;;6.65;4.00;;;;;;;10.75;55.64;100950.44;4804950;29;120112;-93
2022/04/25 05:36:12;;;;;;;10.30;4.15;;;;;;;10.73;55.36;100944.63;4808529;29;122491;-94
2022/04/25 05:38:38;;;;;;;13.05;4.00;;;;;;;10.80;55.68;100947.13;4806847;29;121232;-94
2022/04/25 05:41:07;;;;;;;12.63;3.60;;;;;;;11.28;54.74;101010.91;4806517;29;120971;-93
2022/04/25 05:43:33;;;;;;;9.60;3.63;;;;;;;10.76;54.90;100932.75;4790935;29;118551;-94
2022/04/25 05:46:00;;;;;;;7.25;3.30;;;;;;;10.84;54.52;100945.00;4788819;29;121302;-93
2022/04/25 05:54:07;;;;;;;7.38;3.70;;;;;;;10.94;54.14;100949.38;4804161;29;121191;-93
2022/04/25 05:56:34;;;;;;;8.15;3.60;;;;;;;11.46;54.31;101015.78;4789545;29;121779;-94
2022/04/25 05:59:02;;;;;;;8.57;3.60;;;;;;;11.00;54.48;100947.56;4807983;29;118540;-94
2022/04/25 06:01:29;;;;;;;10.00;3.83;;;;;;;11.53;54.02;101016.28;4803795;29;120713;-94
2022/04/25 06:03:56;;;;;;;5.97;3.58;;;;;;;11.29;53.60;100979.50;4804849;29;118583;-93
2022/04/25 06:06:26;;;;;;;9.10;3.80;;;;;;;11.18;54.07;100955.19;4805757;29;118710;-93
2022/04/25 06:08:52;;;;;;;7.35;3.60;;;;;;;11.20;53.80;100944.53;4805668;29;121978;-93
2022/04/25 06:11:22;;;;;;;7.60;3.53;;;;;;;11.23;53.39;100945.59;4805175;29;118584;-94
2022/04/25 06:13:50;;;;;;;5.68;3.88;;;;;;;11.76;53.12;101023.28;4818084;29;121141;-94
2022/04/25 06:16:17;;;;;;;6.78;3.80;;;;;;;11.34;53.66;100951.44;4823374;29;120492;-93
2022/04/25 06:18:51;;;;;;;7.97;3.45;;;;;;;11.33;52.50;100955.41;4787177;29;118411;-93
2022/04/25 06:21:18;;;;;;;4.90;3.38;;;;;;;11.86;53.03;101032.38;4774268;29;121254;-95
2022/04/25 06:23:45;;;;;;;5.55;3.60;;;;;;;11.84;52.60;101026.56;4802181;29;118519;-93
2022/04/25 06:26:12;;;;;;;5.85;3.65;;;;;;;11.45;53.50;100964.81;4771689;29;120977;-94
2022/04/25 06:28:39;;;;;;;6.70;3.88;;;;;;;11.51;53.64;100963.78;4798973;29;120514;-95
2022/04/25 06:31:06;;;;;;;7.75;4.00;;;;;;;11.78;53.56;100992.59;4803198;29;118550;-95
2022/04/25 06:33:46;;;;;;;6.63;3.58;;;;;;;11.69;53.27;100969.38;4802230;29;119751;-94
2022/04/25 06:36:13;;;;;;;6.55;3.28;;;;;;;11.80;52.83;100973.72;4783637;29;120522;-94
2022/04/25 06:38:41;;;;;;;5.60;3.80;;;;;;;11.82;51.19;100976.75;4791954;29;118485;-93
2022/04/25 06:41:11;;;;;;;5.95;3.55;;;;;;;11.84;51.63;100972.38;4803874;29;121008;-94
2022/04/25 06:43:47;;;;;;;5.63;3.25;;;;;;;11.87;51.64;100965.19;4823925;29;120594;-93
2022/04/25 06:46:13;;;;;;;4.35;3.25;;;;;;;12.19;51.73;101000.44;4819098;29;120784;-94
2022/04/25 06:48:40;;;;;;;9.27;3.38;;;;;;;11.99;51.34;100967.06;4804367;29;122293;-93
2022/04/25 06:51:07;;;;;;;7.45;3.70;;;;;;;12.04;51.58;100974.72;4790277;29;118591;-94
2022/04/25 06:53:38;;;;;;;5.07;3.50;;;;;;;12.49;51.63;101034.59;4822257;29;118444;-94
2022/04/25 06:56:04;;;;;;;6.00;3.70;;;;;;;12.26;51.47;100991.13;4805168;29;122604;-94
2022/04/25 06:58:36;;;;;;;6.53;3.55;;;;;;;12.11;51.24;100976.44;4805019;29;118429;-93
2022/04/25 07:01:03;;;;;;;5.25;3.72;;;;;;;12.07;51.11;100960.09;4804405;29;121033;-94
2022/04/25 07:03:37;;;;;;;5.10;3.33;;;;;;;12.17;51.79;100969.88;4819468;29;120843;-94
2022/04/25 07:06:03;;;;;;;5.93;3.83;;;;;;;12.24;51.22;100975.09;4808245;29;118483;-94
2022/04/25 07:08:29;;;;;;;4.13;3.60;;;;;;;12.59;51.63;101007.88;4818625;29;119570;-95
2022/04/25 07:11:01;;;;;;;4.53;3.25;;;;;;;12.33;51.20;100968.09;4789049;29;118645;-94
2022/04/25 07:13:33;;;;;;;6.28;3.65;;;;;;;12.48;51.70;100982.78;4819340;29;119424;-94
2022/04/25 07:16:00;;;;;;;6.47;3.30;;;;;;;12.42;50.96;100959.84;4786425;29;121760;-94
2022/04/25 07:18:31;;;;;;;5.78;3.42;;;;;;;12.79;50.73;101002.72;4802732;29;119025;-93
2022/04/25 07:20:58;;;;;;;5.53;3.50;;;;;;;12.55;49.85;100966.00;4789100;29;121170;-93
2022/04/25 07:35:04;;;;;;;6.97;3.77;;;;;;;12.68;50.13;100985.13;4811608;29;118440;-93
2022/04/25 11:51:58;;;;;;;5.25;4.32;;;;;;;15.88;44.86;101042.31;5425389;23;120645;-94
2022/04/25 11:54:41;;;;;;;10.48;5.50;;;;;;;16.47;41.14;101105.88;4808073;29;120454;-94
2022/04/25 11:57:19;;;;;;;6.00;4.47;;;;;;;16.13;41.25;101023.59;4820949;29;118672;-95
2022/04/25 12:00:23;;;;;;;7.13;5.03;;;;;;;16.30;42.11;101032.88;4833785;29;118589;-94
2022/04/25 12:02:58;;;;;;;10.20;4.78;;;;;;;16.41;41.89;101027.50;4821954;29;121863;-93
2022/04/25 12:05:40;;;;;;;5.97;4.63;;;;;;;16.52;41.21;101022.09;4841939;29;118725;-94
2022/04/25 12:16:29;;;;;;;6.07;4.18;;;;;;;16.77;39.32;101044.88;4767826;29;118840;-94
2022/04/25 12:25:00;;;;;;;6.93;4.97;;;;;;;16.95;39.30;101080.63;4740375;29;119238;-94
2022/04/25 12:27:26;;;;;;;6.68;4.85;;;;;;;16.71;39.38;101063.44;4697132;29;122501;-93
2022/04/25 12:30:07;;;;;;;7.40;5.15;;;;;;;16.45;40.14;101014.22;4696852;29;122068;-93
2022/04/25 12:32:34;;;;;;;6.75;4.68;;;;;;;16.48;40.76;101015.25;4709098;29;119403;-94
2022/04/25 12:35:01;;;;;;;8.45;5.70;;;;;;;16.62;41.83;101025.53;4700757;29;121652;-93
2022/04/25 12:37:39;;;;;;;7.57;5.15;;;;;;;16.69;41.61;101010.53;4682199;29;119215;-93
2022/04/25 12:40:06;;;;;;;7.90;5.15;;;;;;;16.81;40.34;101021.28;4734934;29;120733;-93
2022/04/25 12:42:46;;;;;;;7.60;5.07;;;;;;;16.85;40.84;101016.28;4735682;29;122048;-93
2022/04/25 12:45:16;;;;;;;8.27;5.15;;;;;;;16.93;40.54;101002.75;4751200;29;119394;-93
2022/04/25 12:47:44;;;;;;;6.95;4.85;;;;;;;17.57;40.67;101071.00;4734761;29;122866;-92
2022/04/25 12:50:11;;;;;;;7.07;5.40;;;;;;;17.27;40.85;101023.31;4735149;29;123515;-93
2022/04/25 12:52:49;;;;;;;6.88;5.10;;;;;;;17.39;40.54;101010.31;4749782;29;119377;-93
2022/04/25 12:55:44;;;;;;;7.20;4.45;;;;;;;17.57;40.29;101007.19;4753583;29;121532;-93
2022/04/25 12:58:13;;;;;;;7.80;4.90;;;;;;;17.69;40.89;101003.28;4744607;29;118612;-93
2022/04/25 13:00:44;;;;;;;6.18;4.88;;;;;;;17.81;39.81;101003.38;4700163;29;121110;-92
2022/04/25 13:03:12;;;;;;;7.60;5.30;;;;;;;17.86;39.22;101005.44;4757550;29;120451;-93
2022/04/25 13:05:39;;;;;;;10.20;5.35;;;;;;;17.89;39.19;101010.00;4801214;29;119226;-92
2022/04/25 13:08:09;;;;;;;7.70;5.38;;;;;;;17.88;38.45;100997.38;4788683;29;121396;-93
2022/04/25 13:10:40;;;;;;;7.72;5.72;;;;;;;17.87;38.86;101001.41;4787300;29;120749;-92
2022/04/25 13:13:10;;;;;;;7.60;5.05;;;;;;;17.75;38.06;100995.78;4804469;29;119510;-93
2022/04/25 13:22:49;;;;;;;8.80;5.10;;;;;;;17.48;38.35;100999.78;4803773;29;119840;-94
2022/04/25 17:14:55;;;;;;;13.13;9.75;;;;;;;15.74;43.99;101042.31;4788603;29;122333;-96
2022/04/25 17:17:22;;;;;;;13.27;9.68;;;;;;;15.65;43.87;101034.88;4801410;29;118619;-95
2022/04/25 17:19:48;;;;;;;12.13;9.15;;;;;;;15.65;43.67;101045.94;4806505;29;119805;-95
2022/04/25 17:22:15;;;;;;;11.65;8.75;;;;;;;15.61;43.75;101043.38;4791079;29;122129;-94
2022/04/25 17:24:42;;;;;;;9.85;8.00;;;;;;;15.60;43.07;101046.59;4775541;29;119186;-94
2022/04/25 17:27:08;;;;;;;9.82;7.45;;;;;;;15.46;42.88;101047.31;4792841;29;120917;-94
2022/04/25 17:29:40;;;;;;;10.65;7.30;;;;;;;15.25;42.09;101055.50;4790488;29;118560;-95
